sensor_id;sensor_type;location;lat;lon;timestamp;temperature;humidity
48162;DHT22;33950;48.154;16.316;2022-11-10T00:01:10;8.40;99.90
48162;DHT22;33950;48.154;16.316;2022-11-10T00:03:57;8.30;99.90
48162;DHT22;33950;48.154;16.316;2022-11-10T00:06:45;8.30;99.90
48162;DHT22;33950;48.154;16.316;2022-11-10T00:09:31;8.20;99.90
48162;DHT22;33950;48.154;16.316;2022-11-10T00:12:17;8.20;99.90
48162;DHT22;33950;48.154;16.316;2022-11-10T00:15:04;8.20;99.90
48162;DHT22;33950;48.154;16.316;2022-11-10T00:18:09;8.20;99.90
48162;DHT22;33950;48.154;16.316;2022-11-10T00:21:01;8.20;99.90
48162;DHT22;33950;48.154;16.316;2022-11-10T00:23:47;8.30;99.90
48162;DHT22;33950;48.154;16.316;2022-11-10T00:26:34;8.30;99.90
48162;DHT22;33950;48.154;16.316;2022-11-10T00:29:20;8.30;99.90
48162;DHT22;33950;48.154;16.316;2022-11-10T00:32:06;8.30;99.90
48162;DHT22;33950;48.154;16.316;2022-11-10T00:34:52;8.30;99.90
48162;DHT22;33950;48.154;16.316;2022-11-10T00:37:40;8.30;99.90
48162;DHT22;33950;48.154;16.316;2022-11-10T00:40:26;8.40;99.90
48162;DHT22;33950;48.154;16.316;2022-11-10T00:43:12;8.40;99.90
48162;DHT22;33950;48.154;16.316;2022-11-10T00:45:58;8.50;99.90
48162;DHT22;33950;48.154;16.316;2022-11-10T00:48:44;8.60;99.90
48162;DHT22;33950;48.154;16.316;2022-11-10T00:51:30;8.60;99.90
48162;DHT22;33950;48.154;16.316;2022-11-10T00:54:18;8.60;99.90
48162;DHT22;33950;48.154;16.316;2022-11-10T00:57:04;8.60;99.90
48162;DHT22;33950;48.154;16.316;2022-11-10T00:59:50;8.50;99.90
48162;DHT22;33950;48.154;16.316;2022-11-10T01:02:36;8.60;99.90
48162;DHT22;33950;48.154;16.316;2022-11-10T01:05:22;8.60;99.90
48162;DHT22;33950;48.154;16.316;2022-11-10T01:08:09;8.50;99.90
48162;DHT22;33950;48.154;16.316;2022-11-10T01:11:01;8.40;99.90
48162;DHT22;33950;48.154;16.316;2022-11-10T01:13:49;8.30;99.90
48162;DHT22;33950;48.154;16.316;2022-11-10T01:16:35;8.20;99.90
48162;DHT22;33950;48.154;16.316;2022-11-10T01:19:21;8.20;99.90
48162;DHT22;33950;48.154;16.316;2022-11-10T01:22:08;8.10;99.90
48162;DHT22;33950;48.154;16.316;2022-11-10T01:24:54;8.20;99.90
48162;DHT22;33950;48.154;16.316;2022-11-10T01:27:41;8.10;99.90
48162;DHT22;33950;48.154;16.316;2022-11-10T01:30:27;8.20;99.90
48162;DHT22;33950;48.154;16.316;2022-11-10T01:33:13;8.20;99.90
48162;DHT22;33950;48.154;16.316;2022-11-10T01:36:00;8.20;99.90
48162;DHT22;33950;48.154;16.316;2022-11-10T01:38:46;8.30;99.90
48162;DHT22;33950;48.154;16.316;2022-11-10T01:41:32;8.40;99.90
48162;DHT22;33950;48.154;16.316;2022-11-10T01:44:21;8.30;99.90
48162;DHT22;33950;48.154;16.316;2022-11-10T01:47:08;8.20;99.90
48162;DHT22;33950;48.154;16.316;2022-11-10T01:49:54;8.20;99.90
48162;DHT22;33950;48.154;16.316;2022-11-10T01:52:41;8.20;99.90
48162;DHT22;33950;48.154;16.316;2022-11-10T01:55:29;8.20;99.90
48162;DHT22;33950;48.154;16.316;2022-11-10T01:58:20;8.20;99.90
48162;DHT22;33950;48.154;16.316;2022-11-10T02:01:09;8.40;99.90
48162;DHT22;33950;48.154;16.316;2022-11-10T02:03:57;8.40;99.90
48162;DHT22;33950;48.154;16.316;2022-11-10T02:06:45;8.30;99.90
48162;DHT22;33950;48.154;16.316;2022-11-10T02:09:31;8.30;99.90
48162;DHT22;33950;48.154;16.316;2022-11-10T02:12:17;8.20;99.90
48162;DHT22;33950;48.154;16.316;2022-11-10T02:15:22;8.10;99.90
48162;DHT22;33950;48.154;16.316;2022-11-10T02:18:09;8.10;99.90
48162;DHT22;33950;48.154;16.316;2022-11-10T02:20:57;8.00;99.90
48162;DHT22;33950;48.154;16.316;2022-11-10T02:23:48;8.10;99.90
48162;DHT22;33950;48.154;16.316;2022-11-10T02:26:36;8.10;99.90
48162;DHT22;33950;48.154;16.316;2022-11-10T02:29:25;8.20;99.90
48162;DHT22;33950;48.154;16.316;2022-11-10T02:32:11;8.10;99.90
48162;DHT22;33950;48.154;16.316;2022-11-10T02:34:57;8.10;99.90
48162;DHT22;33950;48.154;16.316;2022-11-10T02:37:44;8.10;99.90
48162;DHT22;33950;48.154;16.316;2022-11-10T02:40:30;8.10;99.90
48162;DHT22;33950;48.154;16.316;2022-11-10T02:43:17;8.10;99.90
48162;DHT22;33950;48.154;16.316;2022-11-10T02:46:04;8.10;99.90
48162;DHT22;33950;48.154;16.316;2022-11-10T02:48:50;8.10;99.90
48162;DHT22;33950;48.154;16.316;2022-11-10T02:51:36;8.10;99.90
48162;DHT22;33950;48.154;16.316;2022-11-10T02:54:24;8.10;99.90
48162;DHT22;33950;48.154;16.316;2022-11-10T02:57:10;8.10;99.90
48162;DHT22;33950;48.154;16.316;2022-11-10T02:59:56;8.10;99.90
48162;DHT22;33950;48.154;16.316;2022-11-10T03:02:42;8.10;99.90
48162;DHT22;33950;48.154;16.316;2022-11-10T03:05:29;8.10;99.90
48162;DHT22;33950;48.154;16.316;2022-11-10T03:08:16;8.20;99.90
48162;DHT22;33950;48.154;16.316;2022-11-10T03:11:04;8.20;99.90
48162;DHT22;33950;48.154;16.316;2022-11-10T03:13:50;8.20;99.90
48162;DHT22;33950;48.154;16.316;2022-11-10T03:16:36;8.20;99.90
48162;DHT22;33950;48.154;16.316;2022-11-10T03:19:23;8.30;99.90
48162;DHT22;33950;48.154;16.316;2022-11-10T03:22:09;8.30;99.90
48162;DHT22;33950;48.154;16.316;2022-11-10T03:24:55;8.30;99.90
48162;DHT22;33950;48.154;16.316;2022-11-10T03:27:42;8.30;99.90
48162;DHT22;33950;48.154;16.316;2022-11-10T03:30:28;8.30;99.90
48162;DHT22;33950;48.154;16.316;2022-11-10T03:33:14;8.30;99.90
48162;DHT22;33950;48.154;16.316;2022-11-10T03:36:00;8.30;99.90
48162;DHT22;33950;48.154;16.316;2022-11-10T03:38:46;8.40;99.90
48162;DHT22;33950;48.154;16.316;2022-11-10T03:41:32;8.40;99.90
48162;DHT22;33950;48.154;16.316;2022-11-10T03:44:20;8.50;99.90
48162;DHT22;33950;48.154;16.316;2022-11-10T03:47:06;8.40;99.90
48162;DHT22;33950;48.154;16.316;2022-11-10T03:49:52;8.50;99.90
48162;DHT22;33950;48.154;16.316;2022-11-10T03:52:38;8.60;99.90
48162;DHT22;33950;48.154;16.316;2022-11-10T03:55:25;8.60;99.90
48162;DHT22;33950;48.154;16.316;2022-11-10T03:58:11;8.50;99.90
48162;DHT22;33950;48.154;16.316;2022-11-10T04:00:58;8.60;99.90
48162;DHT22;33950;48.154;16.316;2022-11-10T04:03:45;8.60;99.90
48162;DHT22;33950;48.154;16.316;2022-11-10T04:06:31;8.60;99.90
48162;DHT22;33950;48.154;16.316;2022-11-10T04:09:35;8.50;99.90
48162;DHT22;33950;48.154;16.316;2022-11-10T04:12:21;8.50;99.90
48162;DHT22;33950;48.154;16.316;2022-11-10T04:15:26;8.40;99.90
48162;DHT22;33950;48.154;16.316;2022-11-10T04:18:28;8.50;99.90
48162;DHT22;33950;48.154;16.316;2022-11-10T04:21:14;8.60;99.90
48162;DHT22;33950;48.154;16.316;2022-11-10T04:24:01;8.60;99.90
48162;DHT22;33950;48.154;16.316;2022-11-10T04:26:47;8.70;99.90
48162;DHT22;33950;48.154;16.316;2022-11-10T04:29:34;8.70;99.90
48162;DHT22;33950;48.154;16.316;2022-11-10T04:32:20;8.70;99.90
48162;DHT22;33950;48.154;16.316;2022-11-10T04:35:08;8.80;99.90
48162;DHT22;33950;48.154;16.316;2022-11-10T04:37:54;8.80;99.90
48162;DHT22;33950;48.154;16.316;2022-11-10T04:40:40;8.80;99.90
48162;DHT22;33950;48.154;16.316;2022-11-10T04:43:26;8.90;99.90
48162;DHT22;33950;48.154;16.316;2022-11-10T04:46:19;8.90;99.90
48162;DHT22;33950;48.154;16.316;2022-11-10T04:49:06;8.90;99.90
48162;DHT22;33950;48.154;16.316;2022-11-10T04:51:54;8.90;99.90
48162;DHT22;33950;48.154;16.316;2022-11-10T04:54:40;8.90;99.90
48162;DHT22;33950;48.154;16.316;2022-11-10T04:57:26;8.90;99.90
48162;DHT22;33950;48.154;16.316;2022-11-10T05:00:13;9.00;99.90
48162;DHT22;33950;48.154;16.316;2022-11-10T05:03:01;9.10;99.90
48162;DHT22;33950;48.154;16.316;2022-11-10T05:05:47;9.20;99.90
48162;DHT22;33950;48.154;16.316;2022-11-10T05:08:36;9.20;99.90
48162;DHT22;33950;48.154;16.316;2022-11-10T05:11:23;9.10;99.90
48162;DHT22;33950;48.154;16.316;2022-11-10T05:14:09;9.10;99.90
48162;DHT22;33950;48.154;16.316;2022-11-10T05:16:55;9.20;99.90
48162;DHT22;33950;48.154;16.316;2022-11-10T05:19:41;9.10;99.90
48162;DHT22;33950;48.154;16.316;2022-11-10T05:22:27;9.10;99.90
48162;DHT22;33950;48.154;16.316;2022-11-10T05:25:15;9.10;99.90
48162;DHT22;33950;48.154;16.316;2022-11-10T05:28:01;9.00;99.90
48162;DHT22;33950;48.154;16.316;2022-11-10T05:30:47;9.00;99.90
48162;DHT22;33950;48.154;16.316;2022-11-10T05:33:34;9.00;99.90
48162;DHT22;33950;48.154;16.316;2022-11-10T05:36:20;8.90;99.90
48162;DHT22;33950;48.154;16.316;2022-11-10T05:39:07;9.00;99.90
48162;DHT22;33950;48.154;16.316;2022-11-10T05:41:54;9.00;99.90
48162;DHT22;33950;48.154;16.316;2022-11-10T05:44:40;9.00;99.90
48162;DHT22;33950;48.154;16.316;2022-11-10T05:47:26;8.90;99.90
48162;DHT22;33950;48.154;16.316;2022-11-10T05:50:12;8.90;99.90
48162;DHT22;33950;48.154;16.316;2022-11-10T05:52:59;8.90;99.90
48162;DHT22;33950;48.154;16.316;2022-11-10T05:55:45;8.90;99.90
48162;DHT22;33950;48.154;16.316;2022-11-10T05:58:32;8.90;99.90
48162;DHT22;33950;48.154;16.316;2022-11-10T06:01:18;9.00;99.90
48162;DHT22;33950;48.154;16.316;2022-11-10T06:04:04;8.90;99.90
48162;DHT22;33950;48.154;16.316;2022-11-10T06:06:50;9.00;99.90
48162;DHT22;33950;48.154;16.316;2022-11-10T06:09:36;9.00;99.90
48162;DHT22;33950;48.154;16.316;2022-11-10T06:12:23;9.10;99.90
48162;DHT22;33950;48.154;16.316;2022-11-10T06:15:11;9.20;99.90
48162;DHT22;33950;48.154;16.316;2022-11-10T06:17:58;9.30;99.90
48162;DHT22;33950;48.154;16.316;2022-11-10T06:20:45;9.30;99.90
48162;DHT22;33950;48.154;16.316;2022-11-10T06:23:32;9.40;99.90
48162;DHT22;33950;48.154;16.316;2022-11-10T06:26:18;9.40;99.90
48162;DHT22;33950;48.154;16.316;2022-11-10T06:29:04;9.50;99.90
48162;DHT22;33950;48.154;16.316;2022-11-10T06:31:51;9.50;99.90
48162;DHT22;33950;48.154;16.316;2022-11-10T06:34:37;9.60;99.90
48162;DHT22;33950;48.154;16.316;2022-11-10T06:37:23;9.60;99.90
48162;DHT22;33950;48.154;16.316;2022-11-10T06:40:11;9.70;99.90
48162;DHT22;33950;48.154;16.316;2022-11-10T06:42:59;9.70;99.90
48162;DHT22;33950;48.154;16.316;2022-11-10T06:45:45;9.80;99.90
48162;DHT22;33950;48.154;16.316;2022-11-10T06:48:32;9.90;99.90
48162;DHT22;33950;48.154;16.316;2022-11-10T06:51:18;10.00;99.90
48162;DHT22;33950;48.154;16.316;2022-11-10T06:54:05;10.10;99.90
48162;DHT22;33950;48.154;16.316;2022-11-10T06:56:51;10.20;99.90
48162;DHT22;33950;48.154;16.316;2022-11-10T06:59:37;10.40;99.90
48162;DHT22;33950;48.154;16.316;2022-11-10T07:02:23;10.50;99.90
48162;DHT22;33950;48.154;16.316;2022-11-10T07:05:11;10.60;99.90
48162;DHT22;33950;48.154;16.316;2022-11-10T07:08:01;10.70;99.90
48162;DHT22;33950;48.154;16.316;2022-11-10T07:10:51;10.80;99.90
48162;DHT22;33950;48.154;16.316;2022-11-10T07:13:37;10.90;99.90
48162;DHT22;33950;48.154;16.316;2022-11-10T07:16:23;10.90;99.90
48162;DHT22;33950;48.154;16.316;2022-11-10T07:19:09;11.00;99.90
48162;DHT22;33950;48.154;16.316;2022-11-10T07:21:57;11.10;99.90
48162;DHT22;33950;48.154;16.316;2022-11-10T07:24:43;11.20;99.90
48162;DHT22;33950;48.154;16.316;2022-11-10T07:27:29;11.30;99.90
48162;DHT22;33950;48.154;16.316;2022-11-10T07:30:15;11.40;99.90
48162;DHT22;33950;48.154;16.316;2022-11-10T07:33:03;11.40;99.90
48162;DHT22;33950;48.154;16.316;2022-11-10T07:35:52;11.50;99.90
48162;DHT22;33950;48.154;16.316;2022-11-10T07:38:41;11.60;99.90
48162;DHT22;33950;48.154;16.316;2022-11-10T07:41:27;11.60;99.90
48162;DHT22;33950;48.154;16.316;2022-11-10T07:44:13;11.60;99.90
48162;DHT22;33950;48.154;16.316;2022-11-10T07:46:59;11.70;99.90
48162;DHT22;33950;48.154;16.316;2022-11-10T07:49:45;11.70;99.90
48162;DHT22;33950;48.154;16.316;2022-11-10T07:52:31;11.70;99.90
48162;DHT22;33950;48.154;16.316;2022-11-10T07:55:19;11.60;99.90
48162;DHT22;33950;48.154;16.316;2022-11-10T07:58:05;11.80;99.90
48162;DHT22;33950;48.154;16.316;2022-11-10T08:00:52;11.80;99.90
48162;DHT22;33950;48.154;16.316;2022-11-10T08:03:38;11.90;99.90
48162;DHT22;33950;48.154;16.316;2022-11-10T08:06:24;11.90;99.90
48162;DHT22;33950;48.154;16.316;2022-11-10T08:09:10;12.00;99.90
48162;DHT22;33950;48.154;16.316;2022-11-10T08:11:57;12.00;99.90
48162;DHT22;33950;48.154;16.316;2022-11-10T08:14:43;12.00;99.90
48162;DHT22;33950;48.154;16.316;2022-11-10T08:17:29;12.10;99.90
48162;DHT22;33950;48.154;16.316;2022-11-10T08:20:16;12.20;99.90
48162;DHT22;33950;48.154;16.316;2022-11-10T08:23:04;12.30;99.90
48162;DHT22;33950;48.154;16.316;2022-11-10T08:25:50;12.30;99.90
48162;DHT22;33950;48.154;16.316;2022-11-10T08:28:39;12.40;99.90
48162;DHT22;33950;48.154;16.316;2022-11-10T08:31:25;12.30;99.90
48162;DHT22;33950;48.154;16.316;2022-11-10T08:34:11;12.20;99.90
48162;DHT22;33950;48.154;16.316;2022-11-10T08:36:57;12.20;99.90
48162;DHT22;33950;48.154;16.316;2022-11-10T08:39:43;12.20;99.90
48162;DHT22;33950;48.154;16.316;2022-11-10T08:42:30;12.20;99.90
48162;DHT22;33950;48.154;16.316;2022-11-10T08:45:17;12.20;99.90
48162;DHT22;33950;48.154;16.316;2022-11-10T08:48:04;12.20;99.90
48162;DHT22;33950;48.154;16.316;2022-11-10T08:50:51;12.30;99.90
48162;DHT22;33950;48.154;16.316;2022-11-10T08:53:37;12.30;99.90
48162;DHT22;33950;48.154;16.316;2022-11-10T08:56:23;12.30;99.90
48162;DHT22;33950;48.154;16.316;2022-11-10T08:59:09;12.30;99.90
48162;DHT22;33950;48.154;16.316;2022-11-10T09:01:59;12.40;99.90
48162;DHT22;33950;48.154;16.316;2022-11-10T09:04:46;12.40;99.90
48162;DHT22;33950;48.154;16.316;2022-11-10T09:07:41;12.50;99.90
48162;DHT22;33950;48.154;16.316;2022-11-10T09:10:28;12.60;99.90
48162;DHT22;33950;48.154;16.316;2022-11-10T09:13:14;12.50;99.90
48162;DHT22;33950;48.154;16.316;2022-11-10T09:16:01;12.60;99.90
48162;DHT22;33950;48.154;16.316;2022-11-10T09:18:49;12.60;99.90
48162;DHT22;33950;48.154;16.316;2022-11-10T09:21:38;12.60;99.90
48162;DHT22;33950;48.154;16.316;2022-11-10T09:24:24;12.60;99.90
48162;DHT22;33950;48.154;16.316;2022-11-10T09:27:10;12.60;99.90
48162;DHT22;33950;48.154;16.316;2022-11-10T09:29:56;12.60;99.90
48162;DHT22;33950;48.154;16.316;2022-11-10T09:32:42;12.60;99.90
48162;DHT22;33950;48.154;16.316;2022-11-10T09:35:35;12.60;99.90
48162;DHT22;33950;48.154;16.316;2022-11-10T09:38:24;12.60;99.90
48162;DHT22;33950;48.154;16.316;2022-11-10T09:41:13;12.70;99.90
48162;DHT22;33950;48.154;16.316;2022-11-10T09:44:04;12.70;99.90
48162;DHT22;33950;48.154;16.316;2022-11-10T09:46:56;12.80;99.90
48162;DHT22;33950;48.154;16.316;2022-11-10T09:49:45;12.80;99.90
48162;DHT22;33950;48.154;16.316;2022-11-10T09:52:34;12.80;99.90
48162;DHT22;33950;48.154;16.316;2022-11-10T09:55:32;12.90;99.90
48162;DHT22;33950;48.154;16.316;2022-11-10T09:58:23;13.00;99.90
48162;DHT22;33950;48.154;16.316;2022-11-10T10:01:21;12.90;99.90
48162;DHT22;33950;48.154;16.316;2022-11-10T10:04:28;12.90;99.90
48162;DHT22;33950;48.154;16.316;2022-11-10T10:07:23;13.00;99.90
48162;DHT22;33950;48.154;16.316;2022-11-10T10:10:16;12.90;99.90
48162;DHT22;33950;48.154;16.316;2022-11-10T10:13:30;12.90;99.90
48162;DHT22;33950;48.154;16.316;2022-11-10T10:16:30;12.90;99.90
48162;DHT22;33950;48.154;16.316;2022-11-10T10:19:29;13.00;99.90
48162;DHT22;33950;48.154;16.316;2022-11-10T10:22:48;13.00;99.90
48162;DHT22;33950;48.154;16.316;2022-11-10T10:25:42;13.00;99.90
48162;DHT22;33950;48.154;16.316;2022-11-10T10:28:34;13.20;99.90
48162;DHT22;33950;48.154;16.316;2022-11-10T10:31:24;13.10;99.90
48162;DHT22;33950;48.154;16.316;2022-11-10T10:34:12;13.10;99.90
48162;DHT22;33950;48.154;16.316;2022-11-10T10:37:00;13.00;99.90
48162;DHT22;33950;48.154;16.316;2022-11-10T10:39:48;13.10;99.90
48162;DHT22;33950;48.154;16.316;2022-11-10T10:42:36;13.00;99.90
48162;DHT22;33950;48.154;16.316;2022-11-10T10:45:24;13.00;99.90
48162;DHT22;33950;48.154;16.316;2022-11-10T10:48:23;13.00;99.90
48162;DHT22;33950;48.154;16.316;2022-11-10T10:51:09;12.90;99.90
48162;DHT22;33950;48.154;16.316;2022-11-10T10:53:57;12.90;99.90
48162;DHT22;33950;48.154;16.316;2022-11-10T10:56:43;12.90;99.90
48162;DHT22;33950;48.154;16.316;2022-11-10T10:59:46;13.00;99.90
48162;DHT22;33950;48.154;16.316;2022-11-10T11:02:33;13.10;99.90
48162;DHT22;33950;48.154;16.316;2022-11-10T11:05:19;13.00;99.90
48162;DHT22;33950;48.154;16.316;2022-11-10T11:08:15;13.00;99.90
48162;DHT22;33950;48.154;16.316;2022-11-10T11:11:10;13.00;99.90
48162;DHT22;33950;48.154;16.316;2022-11-10T11:14:29;13.00;99.90
48162;DHT22;33950;48.154;16.316;2022-11-10T11:17:21;13.00;99.90
48162;DHT22;33950;48.154;16.316;2022-11-10T11:20:12;13.00;99.90
48162;DHT22;33950;48.154;16.316;2022-11-10T11:23:02;13.00;99.90
48162;DHT22;33950;48.154;16.316;2022-11-10T11:26:00;13.00;99.90
48162;DHT22;33950;48.154;16.316;2022-11-10T11:28:55;13.00;99.90
48162;DHT22;33950;48.154;16.316;2022-11-10T11:31:52;13.00;99.90
48162;DHT22;33950;48.154;16.316;2022-11-10T11:34:47;13.10;99.90
48162;DHT22;33950;48.154;16.316;2022-11-10T11:37:46;13.10;99.90
48162;DHT22;33950;48.154;16.316;2022-11-10T11:40:48;13.10;99.90
48162;DHT22;33950;48.154;16.316;2022-11-10T11:47:21;13.20;99.90
48162;DHT22;33950;48.154;16.316;2022-11-10T11:50:22;13.20;99.90
48162;DHT22;33950;48.154;16.316;2022-11-10T11:53:25;13.20;99.90
48162;DHT22;33950;48.154;16.316;2022-11-10T11:56:20;13.20;99.90
48162;DHT22;33950;48.154;16.316;2022-11-10T12:02:37;13.30;99.90
48162;DHT22;33950;48.154;16.316;2022-11-10T12:05:39;13.30;99.90
48162;DHT22;33950;48.154;16.316;2022-11-10T12:08:34;13.30;99.90
48162;DHT22;33950;48.154;16.316;2022-11-10T12:11:28;13.30;99.90
48162;DHT22;33950;48.154;16.316;2022-11-10T12:14:22;13.30;99.90
48162;DHT22;33950;48.154;16.316;2022-11-10T12:17:16;13.40;99.90
48162;DHT22;33950;48.154;16.316;2022-11-10T12:20:19;13.40;99.90
48162;DHT22;33950;48.154;16.316;2022-11-10T12:23:16;13.30;99.90
48162;DHT22;33950;48.154;16.316;2022-11-10T12:26:08;13.20;99.90
48162;DHT22;33950;48.154;16.316;2022-11-10T12:29:03;13.20;99.90
48162;DHT22;33950;48.154;16.316;2022-11-10T12:31:53;13.10;99.90
48162;DHT22;33950;48.154;16.316;2022-11-10T12:34:42;13.00;99.90
48162;DHT22;33950;48.154;16.316;2022-11-10T12:37:34;13.00;99.90
48162;DHT22;33950;48.154;16.316;2022-11-10T12:40:25;13.00;99.90
48162;DHT22;33950;48.154;16.316;2022-11-10T12:43:18;13.10;99.90
48162;DHT22;33950;48.154;16.316;2022-11-10T12:46:08;13.20;99.90
48162;DHT22;33950;48.154;16.316;2022-11-10T12:49:06;13.20;99.90
48162;DHT22;33950;48.154;16.316;2022-11-10T12:51:58;13.20;99.90
48162;DHT22;33950;48.154;16.316;2022-11-10T12:54:47;13.20;99.90
48162;DHT22;33950;48.154;16.316;2022-11-10T12:57:36;13.10;99.90
48162;DHT22;33950;48.154;16.316;2022-11-10T13:00:25;13.10;99.90
48162;DHT22;33950;48.154;16.316;2022-11-10T13:03:14;13.20;99.90
48162;DHT22;33950;48.154;16.316;2022-11-10T13:06:24;13.20;99.90
48162;DHT22;33950;48.154;16.316;2022-11-10T13:09:22;13.20;99.90
48162;DHT22;33950;48.154;16.316;2022-11-10T13:12:17;13.30;99.90
48162;DHT22;33950;48.154;16.316;2022-11-10T13:15:49;13.30;99.90
48162;DHT22;33950;48.154;16.316;2022-11-10T13:18:56;13.20;99.90
48162;DHT22;33950;48.154;16.316;2022-11-10T13:22:07;13.10;99.90
48162;DHT22;33950;48.154;16.316;2022-11-10T13:28:14;13.00;99.90
48162;DHT22;33950;48.154;16.316;2022-11-10T13:31:46;12.90;99.90
48162;DHT22;33950;48.154;16.316;2022-11-10T13:34:35;12.90;99.90
48162;DHT22;33950;48.154;16.316;2022-11-10T13:37:46;12.90;99.90
48162;DHT22;33950;48.154;16.316;2022-11-10T13:40:37;13.00;99.90
48162;DHT22;33950;48.154;16.316;2022-11-10T13:43:25;13.00;99.90
48162;DHT22;33950;48.154;16.316;2022-11-10T13:46:13;13.00;99.90
48162;DHT22;33950;48.154;16.316;2022-11-10T13:49:25;13.10;99.90
48162;DHT22;33950;48.154;16.316;2022-11-10T13:52:14;13.20;99.90
48162;DHT22;33950;48.154;16.316;2022-11-10T13:55:13;13.30;99.90
48162;DHT22;33950;48.154;16.316;2022-11-10T13:58:04;13.40;99.90
48162;DHT22;33950;48.154;16.316;2022-11-10T14:01:25;13.60;99.90
48162;DHT22;33950;48.154;16.316;2022-11-10T14:04:35;13.70;99.90
48162;DHT22;33950;48.154;16.316;2022-11-10T14:07:22;13.70;99.60
48162;DHT22;33950;48.154;16.316;2022-11-10T14:10:12;13.60;99.80
48162;DHT22;33950;48.154;16.316;2022-11-10T14:13:03;13.70;99.90
48162;DHT22;33950;48.154;16.316;2022-11-10T14:15:52;13.70;99.80
48162;DHT22;33950;48.154;16.316;2022-11-10T14:18:44;13.70;99.40
48162;DHT22;33950;48.154;16.316;2022-11-10T14:21:38;13.60;99.60
48162;DHT22;33950;48.154;16.316;2022-11-10T14:24:30;13.70;99.80
48162;DHT22;33950;48.154;16.316;2022-11-10T14:27:22;13.90;99.50
48162;DHT22;33950;48.154;16.316;2022-11-10T14:30:20;13.80;98.90
48162;DHT22;33950;48.154;16.316;2022-11-10T14:33:11;13.80;98.90
48162;DHT22;33950;48.154;16.316;2022-11-10T14:36:01;13.70;98.90
48162;DHT22;33950;48.154;16.316;2022-11-10T14:38:48;13.70;98.80
48162;DHT22;33950;48.154;16.316;2022-11-10T14:41:35;13.70;98.80
48162;DHT22;33950;48.154;16.316;2022-11-10T14:44:23;13.80;98.90
48162;DHT22;33950;48.154;16.316;2022-11-10T14:47:23;13.70;98.60
48162;DHT22;33950;48.154;16.316;2022-11-10T14:50:18;13.70;98.70
48162;DHT22;33950;48.154;16.316;2022-11-10T14:53:13;13.70;98.70
48162;DHT22;33950;48.154;16.316;2022-11-10T14:56:04;13.80;98.80
48162;DHT22;33950;48.154;16.316;2022-11-10T14:58:51;13.80;98.40
48162;DHT22;33950;48.154;16.316;2022-11-10T15:01:39;13.90;98.50
48162;DHT22;33950;48.154;16.316;2022-11-10T15:04:28;13.80;98.50
48162;DHT22;33950;48.154;16.316;2022-11-10T15:07:16;13.90;98.50
48162;DHT22;33950;48.154;16.316;2022-11-10T15:10:12;13.90;98.50
48162;DHT22;33950;48.154;16.316;2022-11-10T15:13:00;13.90;98.30
48162;DHT22;33950;48.154;16.316;2022-11-10T15:15:47;13.80;98.40
48162;DHT22;33950;48.154;16.316;2022-11-10T15:18:33;13.80;98.50
48162;DHT22;33950;48.154;16.316;2022-11-10T15:21:21;13.80;98.40
48162;DHT22;33950;48.154;16.316;2022-11-10T15:24:11;13.80;98.40
48162;DHT22;33950;48.154;16.316;2022-11-10T15:26:59;13.80;98.40
48162;DHT22;33950;48.154;16.316;2022-11-10T15:29:45;13.80;98.40
48162;DHT22;33950;48.154;16.316;2022-11-10T15:32:34;13.80;98.30
48162;DHT22;33950;48.154;16.316;2022-11-10T15:35:28;13.70;98.30
48162;DHT22;33950;48.154;16.316;2022-11-10T15:38:29;13.60;98.50
48162;DHT22;33950;48.154;16.316;2022-11-10T15:41:22;13.40;98.20
48162;DHT22;33950;48.154;16.316;2022-11-10T15:44:14;13.20;98.40
48162;DHT22;33950;48.154;16.316;2022-11-10T15:47:00;13.10;98.50
48162;DHT22;33950;48.154;16.316;2022-11-10T15:49:46;13.10;98.60
48162;DHT22;33950;48.154;16.316;2022-11-10T15:52:32;13.00;98.60
48162;DHT22;33950;48.154;16.316;2022-11-10T15:55:19;13.00;98.70
48162;DHT22;33950;48.154;16.316;2022-11-10T15:58:17;12.90;98.60
48162;DHT22;33950;48.154;16.316;2022-11-10T16:01:07;13.00;98.60
48162;DHT22;33950;48.154;16.316;2022-11-10T16:03:54;13.00;98.60
48162;DHT22;33950;48.154;16.316;2022-11-10T16:06:40;13.00;98.60
48162;DHT22;33950;48.154;16.316;2022-11-10T16:09:26;13.00;98.50
48162;DHT22;33950;48.154;16.316;2022-11-10T16:12:15;12.90;98.10
48162;DHT22;33950;48.154;16.316;2022-11-10T16:15:01;12.80;98.40
48162;DHT22;33950;48.154;16.316;2022-11-10T16:17:49;12.80;98.20
48162;DHT22;33950;48.154;16.316;2022-11-10T16:20:35;12.80;98.30
48162;DHT22;33950;48.154;16.316;2022-11-10T16:23:22;12.80;98.10
48162;DHT22;33950;48.154;16.316;2022-11-10T16:26:10;12.80;98.10
48162;DHT22;33950;48.154;16.316;2022-11-10T16:28:58;12.70;98.20
48162;DHT22;33950;48.154;16.316;2022-11-10T16:31:44;12.70;98.30
48162;DHT22;33950;48.154;16.316;2022-11-10T16:34:31;12.60;98.20
48162;DHT22;33950;48.154;16.316;2022-11-10T16:37:18;12.60;98.30
48162;DHT22;33950;48.154;16.316;2022-11-10T16:40:11;12.60;98.30
48162;DHT22;33950;48.154;16.316;2022-11-10T16:42:58;12.50;98.50
48162;DHT22;33950;48.154;16.316;2022-11-10T16:45:45;12.60;98.40
48162;DHT22;33950;48.154;16.316;2022-11-10T16:48:34;12.60;98.40
48162;DHT22;33950;48.154;16.316;2022-11-10T16:51:27;12.70;98.40
48162;DHT22;33950;48.154;16.316;2022-11-10T16:54:15;12.80;98.40
48162;DHT22;33950;48.154;16.316;2022-11-10T16:57:01;12.90;98.30
48162;DHT22;33950;48.154;16.316;2022-11-10T16:59:52;12.90;98.20
48162;DHT22;33950;48.154;16.316;2022-11-10T17:02:38;12.80;98.30
48162;DHT22;33950;48.154;16.316;2022-11-10T17:05:25;12.80;98.30
48162;DHT22;33950;48.154;16.316;2022-11-10T17:08:20;12.80;98.40
48162;DHT22;33950;48.154;16.316;2022-11-10T17:11:07;12.70;98.40
48162;DHT22;33950;48.154;16.316;2022-11-10T17:13:54;12.70;98.50
48162;DHT22;33950;48.154;16.316;2022-11-10T17:16:42;12.50;98.60
48162;DHT22;33950;48.154;16.316;2022-11-10T17:19:30;12.50;98.80
48162;DHT22;33950;48.154;16.316;2022-11-10T17:22:18;12.50;98.80
48162;DHT22;33950;48.154;16.316;2022-11-10T17:25:13;12.50;98.80
48162;DHT22;33950;48.154;16.316;2022-11-10T17:28:00;12.40;98.90
48162;DHT22;33950;48.154;16.316;2022-11-10T17:30:46;12.40;98.90
48162;DHT22;33950;48.154;16.316;2022-11-10T17:33:36;12.40;99.00
48162;DHT22;33950;48.154;16.316;2022-11-10T17:36:22;12.40;99.00
48162;DHT22;33950;48.154;16.316;2022-11-10T17:39:11;12.40;99.10
48162;DHT22;33950;48.154;16.316;2022-11-10T17:42:00;12.30;99.10
48162;DHT22;33950;48.154;16.316;2022-11-10T17:44:47;12.30;99.20
48162;DHT22;33950;48.154;16.316;2022-11-10T17:47:33;12.30;99.30
48162;DHT22;33950;48.154;16.316;2022-11-10T17:50:21;12.30;99.30
48162;DHT22;33950;48.154;16.316;2022-11-10T17:53:14;12.20;99.30